createdAt,value
2023-02-11T00:00:06.117Z,41.72
2023-02-11T00:00:28.840Z,42.35
2023-02-11T00:00:52.950Z,40.75
2023-02-11T00:01:19.453Z,40.78
2023-02-11T00:01:42.253Z,42.00
2023-02-11T00:02:05.454Z,41.47
2023-02-11T00:02:30.000Z,42.40
2023-02-11T00:02:52.954Z,42.83
2023-02-11T00:03:15.737Z,42.45
2023-02-11T00:03:39.869Z,43.50
2023-02-11T00:04:03.385Z,43.03
2023-02-11T00:04:26.079Z,40.35
2023-02-11T00:04:48.945Z,40.13
2023-02-11T00:05:11.717Z,39.55
2023-02-11T00:05:34.557Z,39.42
2023-02-11T00:05:59.214Z,41.17
2023-02-11T00:06:21.937Z,39.90
2023-02-11T00:06:44.708Z,41.08
2023-02-11T00:07:07.445Z,42.97
2023-02-11T00:07:30.215Z,41.85
2023-02-11T00:07:52.906Z,41.65
2023-02-11T00:08:17.121Z,42.42
2023-02-11T00:08:39.838Z,41.65
2023-02-11T00:09:02.620Z,40.58
2023-02-11T00:09:25.430Z,41.53
2023-02-11T00:09:48.259Z,40.70
2023-02-11T00:10:11.047Z,42.03
2023-02-11T00:10:33.760Z,40.20
2023-02-11T00:10:57.300Z,40.22
2023-02-11T00:11:21.286Z,41.40
2023-02-11T00:11:44.073Z,40.65
2023-02-11T00:12:06.872Z,39.80
2023-02-11T00:12:29.634Z,39.92
2023-02-11T00:12:52.284Z,39.75
2023-02-11T00:13:15.035Z,38.92
2023-02-11T00:13:37.755Z,39.53
2023-02-11T00:14:02.395Z,39.10
2023-02-11T00:14:25.244Z,36.15
2023-02-11T00:14:48.025Z,37.03
2023-02-11T00:15:10.982Z,37.88
2023-02-11T00:15:33.719Z,38.30
2023-02-11T00:15:57.915Z,39.15
2023-02-11T00:16:21.038Z,39.25
2023-02-11T00:16:43.823Z,38.72
2023-02-11T00:17:06.537Z,38.67
2023-02-11T00:17:29.277Z,38.80
2023-02-11T00:17:51.951Z,38.38
2023-02-11T00:18:14.827Z,38.95
2023-02-11T00:18:37.598Z,37.17
2023-02-11T00:19:00.583Z,36.90
2023-02-11T00:19:23.432Z,37.53
2023-02-11T00:19:49.071Z,39.03
2023-02-11T00:20:11.842Z,39.20
2023-02-11T00:20:34.664Z,38.97
2023-02-11T00:20:57.448Z,39.67
2023-02-11T00:21:21.638Z,39.03
2023-02-11T00:21:44.307Z,38.25
2023-02-11T00:22:07.045Z,38.03
2023-02-11T00:22:29.871Z,39.38
2023-02-11T00:22:52.650Z,37.38
2023-02-11T00:23:15.355Z,36.38
2023-02-11T00:23:38.161Z,36.30
2023-02-11T00:24:02.446Z,36.30
2023-02-11T00:24:25.208Z,36.10
2023-02-11T00:24:48.306Z,36.20
2023-02-11T00:25:11.081Z,36.70
2023-02-11T00:25:33.827Z,35.90
2023-02-11T00:25:56.638Z,35.75
2023-02-11T00:26:20.412Z,35.28
2023-02-11T00:26:43.185Z,35.35
2023-02-11T00:27:05.855Z,37.65
2023-02-11T00:27:28.561Z,38.78
2023-02-11T00:27:54.103Z,39.35
2023-02-11T00:28:17.606Z,38.63
2023-02-11T00:28:40.885Z,38.65
2023-02-11T00:29:03.833Z,37.58
2023-02-11T00:29:26.620Z,37.03
2023-02-11T00:29:49.396Z,36.10
2023-02-11T00:30:12.904Z,36.30
2023-02-11T00:30:35.770Z,37.10
2023-02-11T00:31:02.731Z,37.55
2023-02-11T00:31:25.986Z,38.05
2023-02-11T00:31:49.194Z,38.38
2023-02-11T00:32:12.014Z,37.08
2023-02-11T00:32:34.867Z,35.40
2023-02-11T00:32:57.738Z,35.22
2023-02-11T00:33:20.419Z,35.25
2023-02-11T00:33:43.162Z,36.22
2023-02-11T00:34:05.909Z,37.25
2023-02-11T00:34:28.634Z,36.22
2023-02-11T00:34:52.645Z,36.80
2023-02-11T00:35:15.388Z,37.40
2023-02-11T00:35:38.805Z,37.25
2023-02-11T00:36:04.467Z,36.72
2023-02-11T00:36:28.224Z,37.00
2023-02-11T00:36:52.024Z,35.45
2023-02-11T00:37:14.706Z,36.28
2023-02-11T00:37:37.427Z,36.28
2023-02-11T00:38:00.180Z,36.00
2023-02-11T00:38:22.890Z,34.95
2023-02-11T00:38:45.907Z,34.40
2023-02-11T00:39:08.714Z,36.45
2023-02-11T00:39:31.536Z,35.50
2023-02-11T00:39:54.431Z,36.38
2023-02-11T00:40:17.470Z,35.63
2023-02-11T00:40:40.254Z,34.22
2023-02-11T00:41:03.022Z,34.88
2023-02-11T00:41:26.265Z,33.97
2023-02-11T00:41:49.010Z,35.40
2023-02-11T00:42:14.054Z,35.78
2023-02-11T00:42:37.571Z,35.00
2023-02-11T00:43:00.353Z,34.17
2023-02-11T00:43:22.987Z,34.72
2023-02-11T00:43:45.731Z,35.28
2023-02-11T00:44:08.504Z,35.08
2023-02-11T00:44:31.225Z,33.70
2023-02-11T00:44:54.060Z,34.53
2023-02-11T00:45:17.015Z,34.47
2023-02-11T00:45:39.715Z,35.10
2023-02-11T00:46:04.062Z,35.15
2023-02-11T00:46:26.841Z,33.90
2023-02-11T00:46:49.716Z,33.50
2023-02-11T00:47:12.494Z,33.90
2023-02-11T00:47:35.101Z,33.25
2023-02-11T00:47:57.886Z,33.30
2023-02-11T00:48:20.631Z,33.75
2023-02-11T00:48:43.480Z,34.92
2023-02-11T00:49:06.174Z,33.60
2023-02-11T00:49:28.937Z,32.63
2023-02-11T00:49:52.696Z,33.80
2023-02-11T00:50:15.518Z,33.58
2023-02-11T00:50:38.235Z,33.40
2023-02-11T00:51:01.029Z,34.50
2023-02-11T00:51:23.735Z,34.20
2023-02-11T00:51:46.415Z,33.50
2023-02-11T00:52:09.132Z,32.33
2023-02-11T00:52:31.825Z,32.17
2023-02-11T00:52:54.580Z,33.85
2023-02-11T00:53:17.275Z,34.72
2023-02-11T00:53:40.018Z,32.97
2023-02-11T00:54:02.715Z,33.88
2023-02-11T00:54:26.214Z,33.08
2023-02-11T00:54:50.107Z,33.42
2023-02-11T00:55:12.812Z,33.58
2023-02-11T00:55:35.749Z,32.53
2023-02-11T00:55:58.621Z,32.47
2023-02-11T00:56:21.290Z,33.35
2023-02-11T00:56:44.064Z,33.33
2023-02-11T00:57:06.778Z,34.28
2023-02-11T00:57:29.362Z,34.17
2023-02-11T00:57:52.501Z,33.60
2023-02-11T00:58:15.414Z,33.08
2023-02-11T00:58:38.204Z,34.28
2023-02-11T00:59:00.963Z,33.78
2023-02-11T00:59:23.668Z,33.50
2023-02-11T00:59:46.400Z,33.13
2023-02-11T01:00:12.159Z,32.20
2023-02-11T01:00:34.918Z,32.60
2023-02-11T01:00:57.721Z,33.00
2023-02-11T01:01:21.815Z,32.92
2023-02-11T01:01:44.622Z,33.33
2023-02-11T01:02:07.394Z,33.63
2023-02-11T01:02:30.063Z,32.63
2023-02-11T01:02:52.776Z,32.40
2023-02-11T01:03:15.497Z,32.70
2023-02-11T01:03:38.427Z,33.22
2023-02-11T01:04:01.215Z,32.63
2023-02-11T01:04:23.936Z,32.90
2023-02-11T01:04:46.672Z,33.35
2023-02-11T01:05:09.496Z,33.08
2023-02-11T01:05:32.394Z,33.08
2023-02-11T01:05:55.461Z,32.78
2023-02-11T01:06:18.247Z,33.67
2023-02-11T01:06:40.964Z,33.00
2023-02-11T01:07:03.761Z,32.03
2023-02-11T01:07:26.567Z,32.38
2023-02-11T01:07:49.477Z,33.00
2023-02-11T01:08:12.307Z,31.33
2023-02-11T01:08:35.121Z,32.30
2023-02-11T01:08:57.847Z,32.22
2023-02-11T01:09:21.362Z,32.33
2023-02-11T01:09:44.132Z,32.38
2023-02-11T01:10:07.118Z,31.75
2023-02-11T01:10:29.844Z,32.13
2023-02-11T01:10:56.493Z,32.22
2023-02-11T01:11:20.344Z,31.48
2023-02-11T01:11:43.121Z,32.40
2023-02-11T01:12:06.188Z,32.45
2023-02-11T01:12:28.948Z,32.03
2023-02-11T01:12:51.624Z,33.00
2023-02-11T01:13:14.332Z,32.92
2023-02-11T01:13:39.769Z,31.58
2023-02-11T01:14:02.464Z,32.40
2023-02-11T01:14:25.209Z,31.33
2023-02-11T01:14:47.959Z,31.63
2023-02-11T01:15:11.989Z,32.30
2023-02-11T01:15:34.845Z,32.70
2023-02-11T01:15:57.598Z,32.67
2023-02-11T01:16:21.966Z,31.92
2023-02-11T01:16:45.014Z,32.42
2023-02-11T01:17:07.757Z,31.92
2023-02-11T01:17:30.464Z,32.40
2023-02-11T01:17:53.120Z,32.17
2023-02-11T01:18:15.832Z,32.50
2023-02-11T01:18:38.553Z,32.08
2023-02-11T01:19:01.289Z,31.63
2023-02-11T01:19:24.083Z,32.17
2023-02-11T01:19:46.808Z,31.38
2023-02-11T01:20:12.485Z,31.38
2023-02-11T01:20:35.392Z,32.45
2023-02-11T01:20:58.321Z,33.25
2023-02-11T01:21:21.138Z,33.08
2023-02-11T01:21:43.843Z,32.67
2023-02-11T01:22:06.621Z,32.63
2023-02-11T01:22:29.324Z,32.17
2023-02-11T01:22:52.019Z,32.30
2023-02-11T01:23:15.815Z,32.00
2023-02-11T01:23:38.529Z,31.58
2023-02-11T01:24:01.240Z,31.70
2023-02-11T01:24:23.930Z,32.47
2023-02-11T01:24:46.641Z,31.90
2023-02-11T01:25:09.414Z,32.92
2023-02-11T01:25:32.165Z,32.92
2023-02-11T01:25:54.904Z,33.17
2023-02-11T01:26:17.606Z,32.70
2023-02-11T01:26:40.361Z,32.70
2023-02-11T01:27:03.160Z,32.38
2023-02-11T01:27:25.922Z,32.60
2023-02-11T01:27:48.635Z,32.97
2023-02-11T01:28:16.509Z,32.90
2023-02-11T01:28:39.306Z,32.25
2023-02-11T01:29:02.375Z,32.42
2023-02-11T01:29:25.123Z,32.50
2023-02-11T01:29:47.876Z,33.38
2023-02-11T01:30:12.405Z,32.47
2023-02-11T01:30:35.112Z,32.10
2023-02-11T01:30:57.843Z,32.47
2023-02-11T01:31:22.084Z,32.03
2023-02-11T01:31:46.215Z,32.13
2023-02-11T01:32:09.040Z,31.77
2023-02-11T01:32:31.919Z,32.05
2023-02-11T01:32:54.802Z,32.45
2023-02-11T01:33:17.580Z,32.92
2023-02-11T01:33:40.414Z,32.85
2023-02-11T01:34:03.136Z,31.73
2023-02-11T01:34:26.046Z,32.55
2023-02-11T01:34:48.806Z,33.00
2023-02-11T01:35:11.570Z,32.33
2023-02-11T01:35:34.330Z,32.65
2023-02-11T01:36:00.041Z,32.95
2023-02-11T01:36:22.721Z,32.67
2023-02-11T01:36:45.609Z,33.00
2023-02-11T01:37:08.735Z,32.63
2023-02-11T01:37:33.470Z,33.58
2023-02-11T01:37:56.166Z,32.90
2023-02-11T01:38:20.189Z,32.33
2023-02-11T01:38:44.718Z,32.78
2023-02-11T01:39:08.956Z,32.60
2023-02-11T01:39:34.287Z,33.15
2023-02-11T01:39:57.030Z,32.67
2023-02-11T01:40:20.001Z,32.65
2023-02-11T01:40:47.955Z,31.73
2023-02-11T01:41:12.110Z,32.20
2023-02-11T01:41:34.853Z,32.00
2023-02-11T01:41:57.571Z,32.20
2023-02-11T01:42:21.766Z,32.53
2023-02-11T01:42:44.417Z,32.60
2023-02-11T01:43:07.190Z,33.13
2023-02-11T01:43:32.494Z,33.28
2023-02-11T01:43:55.214Z,32.35
2023-02-11T01:44:25.961Z,32.40
2023-02-11T01:44:49.760Z,31.83
2023-02-11T01:45:54.568Z,32.15
2023-02-11T01:46:32.473Z,33.03
2023-02-11T01:46:55.409Z,32.40
2023-02-11T01:47:18.185Z,32.50
2023-02-11T01:47:40.925Z,32.53
2023-02-11T01:48:05.150Z,32.80
2023-02-11T01:48:30.107Z,32.80
2023-02-11T01:48:53.459Z,32.63
2023-02-11T01:49:18.212Z,32.67
2023-02-11T01:49:42.726Z,32.83
2023-02-11T01:50:05.765Z,32.15
2023-02-11T01:50:28.549Z,32.35
2023-02-11T01:50:52.972Z,32.10
2023-02-11T01:51:19.069Z,32.80
2023-02-11T01:51:44.325Z,32.88
2023-02-11T01:52:09.298Z,32.33
2023-02-11T01:52:32.957Z,32.33
2023-02-11T01:53:15.655Z,32.00
2023-02-11T01:53:56.790Z,32.22
2023-02-11T01:54:36.837Z,32.20
2023-02-11T01:55:19.446Z,32.80
2023-02-11T01:56:00.449Z,32.70
2023-02-11T01:56:42.073Z,31.80
2023-02-11T01:57:22.853Z,32.88
2023-02-11T01:57:47.835Z,32.42
2023-02-11T01:58:10.534Z,32.47
2023-02-11T01:58:33.351Z,32.15
2023-02-11T01:58:57.123Z,32.35
2023-02-11T01:59:22.896Z,31.02
2023-02-11T02:00:02.287Z,32.60
2023-02-11T02:00:25.885Z,32.58
2023-02-11T02:00:49.253Z,32.50
2023-02-11T02:01:12.992Z,32.28
2023-02-11T02:01:37.235Z,32.60
2023-02-11T02:02:03.695Z,32.50
2023-02-11T02:02:30.155Z,33.42
2023-02-11T02:02:55.206Z,32.40
2023-02-11T02:03:20.325Z,32.42
2023-02-11T02:03:44.048Z,33.22
2023-02-11T02:04:06.827Z,32.10
2023-02-11T02:04:31.786Z,31.70
2023-02-11T02:04:57.922Z,31.75
2023-02-11T02:05:25.149Z,31.73
2023-02-11T02:05:49.508Z,32.97
2023-02-11T02:06:16.013Z,32.00
2023-02-11T02:06:42.959Z,32.45
2023-02-11T02:07:08.479Z,32.72
2023-02-11T02:07:34.235Z,31.73
2023-02-11T02:08:07.075Z,32.42
2023-02-11T02:08:32.334Z,31.90
2023-02-11T02:08:57.265Z,32.15
2023-02-11T02:09:22.876Z,32.55
2023-02-11T02:09:49.123Z,32.00
2023-02-11T02:10:14.709Z,32.78
2023-02-11T02:10:38.137Z,33.08
2023-02-11T02:11:01.112Z,32.50
2023-02-11T02:11:26.514Z,33.75
2023-02-11T02:11:49.338Z,33.13
2023-02-11T02:12:12.224Z,33.00
2023-02-11T02:12:34.976Z,32.55
2023-02-11T02:12:57.601Z,31.58
2023-02-11T02:13:20.425Z,32.47
2023-02-11T02:13:43.196Z,31.50
2023-02-11T02:14:08.638Z,31.52
2023-02-11T02:14:31.360Z,32.30
2023-02-11T02:15:18.433Z,31.85
2023-02-11T02:15:43.396Z,32.15
2023-02-11T02:16:09.631Z,31.85
2023-02-11T02:16:33.996Z,32.05
2023-02-11T02:16:58.186Z,31.63
2023-02-11T02:17:27.032Z,32.17
2023-02-11T02:17:57.762Z,31.38
2023-02-11T02:18:33.712Z,32.08
2023-02-11T02:19:05.930Z,32.15
2023-02-11T02:19:50.396Z,32.03
2023-02-11T02:20:51.231Z,31.92
2023-02-11T02:21:43.426Z,31.33
2023-02-11T02:22:33.456Z,32.20
2023-02-11T02:23:17.294Z,32.17
2023-02-11T02:23:51.706Z,33.53
2023-02-11T02:24:56.839Z,32.72
2023-02-11T02:25:44.976Z,32.40
2023-02-11T02:26:29.435Z,32.78
2023-02-11T02:27:18.615Z,32.80
2023-02-11T02:27:46.155Z,32.63
2023-02-11T02:28:17.468Z,33.75
2023-02-11T02:29:11.686Z,32.28
2023-02-11T02:30:15.669Z,31.35
2023-02-11T02:30:50.890Z,33.33
2023-02-11T02:31:28.979Z,35.08
2023-02-11T02:32:05.552Z,34.38
2023-02-11T02:32:40.519Z,34.33
2023-02-11T02:33:22.435Z,33.55
2023-02-11T02:33:48.880Z,33.72
2023-02-11T02:34:14.567Z,33.35
2023-02-11T02:34:39.410Z,33.17
2023-02-11T02:35:05.295Z,32.95
2023-02-11T02:35:32.028Z,33.47
2023-02-11T02:36:03.088Z,32.85
2023-02-11T02:36:31.029Z,33.22
2023-02-11T02:36:57.272Z,33.85
2023-02-11T02:37:22.218Z,33.95
2023-02-11T02:37:48.155Z,34.80
2023-02-11T02:38:13.500Z,35.63
2023-02-11T02:38:39.028Z,35.30
2023-02-11T02:39:04.959Z,35.58
2023-02-11T02:39:29.584Z,35.47
2023-02-11T02:39:52.420Z,34.72
2023-02-11T02:40:17.213Z,34.60
2023-02-11T02:40:43.275Z,35.03
2023-02-11T02:41:08.511Z,35.67
2023-02-11T02:41:32.958Z,35.17
2023-02-11T02:41:55.673Z,35.58
2023-02-11T02:42:18.470Z,35.83
2023-02-11T02:42:41.280Z,35.30
2023-02-11T02:43:04.186Z,34.67
2023-02-11T02:43:27.435Z,36.28
2023-02-11T02:43:50.519Z,35.80
2023-02-11T02:44:13.263Z,35.97
2023-02-11T02:44:35.997Z,36.50
2023-02-11T02:44:58.793Z,35.60
2023-02-11T02:45:21.564Z,35.17
2023-02-11T02:45:44.234Z,34.88
2023-02-11T02:46:14.916Z,35.70
2023-02-11T02:46:37.678Z,35.78
2023-02-11T02:47:00.649Z,36.65
2023-02-11T02:47:23.375Z,36.55
2023-02-11T02:47:47.600Z,36.53
2023-02-11T02:48:29.857Z,35.67
2023-02-11T02:48:53.022Z,35.15
2023-02-11T02:49:16.491Z,35.17
2023-02-11T02:49:39.284Z,35.08
2023-02-11T02:50:02.024Z,34.47
2023-02-11T02:50:30.372Z,34.47
2023-02-11T02:50:55.238Z,34.63
2023-02-11T02:51:30.477Z,33.92
2023-02-11T02:52:05.916Z,34.33
2023-02-11T02:52:33.756Z,35.88
2023-02-11T02:53:02.048Z,35.83
2023-02-11T02:53:27.462Z,34.53
2023-02-11T02:53:58.137Z,35.10
2023-02-11T02:54:55.827Z,35.50
2023-02-11T02:55:27.671Z,35.15
2023-02-11T02:55:55.358Z,34.75
2023-02-11T02:56:20.148Z,35.13
2023-02-11T02:56:45.447Z,35.10
2023-02-11T02:57:14.903Z,35.92
2023-02-11T02:57:42.902Z,33.80
2023-02-11T02:58:43.125Z,34.42
2023-02-11T02:59:24.261Z,35.65
2023-02-11T02:59:52.938Z,36.17
2023-02-11T03:00:19.961Z,34.95
2023-02-11T03:00:46.998Z,35.72
2023-02-11T03:01:13.640Z,35.53
2023-02-11T03:01:40.223Z,35.03
2023-02-11T03:02:06.718Z,33.95
2023-02-11T03:02:31.542Z,35.38
2023-02-11T03:03:05.620Z,34.75
2023-02-11T03:03:32.477Z,35.78
2023-02-11T03:04:00.439Z,35.63
2023-02-11T03:04:27.271Z,35.28
2023-02-11T03:04:53.027Z,35.38
2023-02-11T03:05:18.063Z,34.50
2023-02-11T03:05:45.697Z,34.75
2023-02-11T03:06:10.198Z,34.25
2023-02-11T03:06:34.548Z,35.20
2023-02-11T03:06:59.860Z,36.00
2023-02-11T03:07:26.303Z,34.72
2023-02-11T03:07:52.397Z,35.15
2023-02-11T03:08:17.973Z,35.28
2023-02-11T03:08:42.559Z,35.70
2023-02-11T03:09:10.319Z,34.90
2023-02-11T03:09:35.836Z,35.90
2023-02-11T03:10:00.750Z,35.58
2023-02-11T03:10:25.297Z,34.88
2023-02-11T03:10:50.024Z,34.78
2023-02-11T03:11:12.779Z,35.90
2023-02-11T03:11:36.135Z,35.55
2023-02-11T03:11:59.198Z,35.20
2023-02-11T03:12:22.199Z,35.92
2023-02-11T03:12:45.041Z,36.35
2023-02-11T03:13:07.817Z,35.55
2023-02-11T03:13:33.703Z,36.70
2023-02-11T03:13:56.708Z,36.92
2023-02-11T03:14:19.500Z,36.33
2023-02-11T03:14:42.259Z,34.10
2023-02-11T03:15:06.543Z,35.50
2023-02-11T03:15:30.947Z,36.28
2023-02-11T03:15:55.609Z,35.20
2023-02-11T03:16:20.297Z,34.97
2023-02-11T03:16:43.091Z,36.08
2023-02-11T03:17:05.950Z,35.25
2023-02-11T03:17:28.789Z,34.83
2023-02-11T03:17:52.272Z,35.78
2023-02-11T03:18:17.657Z,35.92
2023-02-11T03:18:41.295Z,35.47
2023-02-11T03:19:05.703Z,36.70
2023-02-11T03:19:30.836Z,36.22
2023-02-11T03:19:53.518Z,35.95
2023-02-11T03:20:17.953Z,35.90
2023-02-11T03:20:41.778Z,36.85
2023-02-11T03:21:05.593Z,36.40
2023-02-11T03:21:28.418Z,36.92
2023-02-11T03:21:52.006Z,38.28
2023-02-11T03:22:17.774Z,38.00
2023-02-11T03:22:43.520Z,37.60
2023-02-11T03:23:08.507Z,38.42
2023-02-11T03:23:33.138Z,36.60
2023-02-11T03:23:57.128Z,38.15
2023-02-11T03:24:22.438Z,38.33
2023-02-11T03:24:45.242Z,37.40
2023-02-11T03:25:08.319Z,37.63
2023-02-11T03:25:34.408Z,38.40
2023-02-11T03:25:59.058Z,36.30
2023-02-11T03:26:24.764Z,36.13
2023-02-11T03:26:49.279Z,36.50
2023-02-11T03:27:18.234Z,37.40
2023-02-11T03:27:44.303Z,36.85
2023-02-11T03:28:12.287Z,35.35
2023-02-11T03:28:37.104Z,35.47
2023-02-11T03:29:03.879Z,34.60
2023-02-11T03:29:32.649Z,34.78
2023-02-11T03:29:57.402Z,35.30
2023-02-11T03:30:22.173Z,35.03
2023-02-11T03:30:47.807Z,35.10
2023-02-11T03:31:13.709Z,35.25
2023-02-11T03:31:40.449Z,35.33
2023-02-11T03:32:06.740Z,34.60
2023-02-11T03:32:30.804Z,34.17
2023-02-11T03:32:56.453Z,34.25
2023-02-11T03:33:23.198Z,33.63
2023-02-11T03:33:52.025Z,34.28
2023-02-11T03:34:16.019Z,33.67
2023-02-11T03:34:41.450Z,34.67
2023-02-11T03:35:05.907Z,35.67
2023-02-11T03:35:29.398Z,33.97
2023-02-11T03:35:53.906Z,34.80
2023-02-11T03:36:18.377Z,35.08
2023-02-11T03:36:46.308Z,35.15
2023-02-11T03:37:11.516Z,35.85
2023-02-11T03:37:35.797Z,35.88
2023-02-11T03:38:00.348Z,35.40
2023-02-11T03:38:25.253Z,35.15
2023-02-11T03:38:52.138Z,35.50
2023-02-11T03:39:16.535Z,33.80
2023-02-11T03:39:41.448Z,33.20
2023-02-11T03:40:05.363Z,34.47
2023-02-11T03:40:29.889Z,33.42
2023-02-11T03:40:52.619Z,34.35
2023-02-11T03:41:16.333Z,34.38
2023-02-11T03:41:39.034Z,35.03
2023-02-11T03:42:01.894Z,34.70
2023-02-11T03:42:24.777Z,34.35
2023-02-11T03:42:50.640Z,34.65
2023-02-11T03:43:17.302Z,33.58
2023-02-11T03:43:42.259Z,34.47
2023-02-11T03:44:05.109Z,34.92
2023-02-11T03:44:31.220Z,34.15
2023-02-11T03:44:56.638Z,33.08
2023-02-11T03:45:20.624Z,33.47
2023-02-11T03:45:43.366Z,33.55
2023-02-11T03:46:06.274Z,33.90
2023-02-11T03:46:31.045Z,32.95
2023-02-11T03:46:53.874Z,33.42
2023-02-11T03:47:16.779Z,34.60
2023-02-11T03:47:40.173Z,33.78
2023-02-11T03:48:04.799Z,33.58
2023-02-11T03:48:31.272Z,34.00
2023-02-11T03:48:55.742Z,34.67
2023-02-11T03:49:20.583Z,33.30
2023-02-11T03:49:43.357Z,33.75
2023-02-11T03:50:08.063Z,32.97
2023-02-11T03:50:31.337Z,33.67
2023-02-11T03:50:54.169Z,33.88
2023-02-11T03:51:18.078Z,33.33
2023-02-11T03:51:40.915Z,33.95
2023-02-11T03:52:04.024Z,34.28
2023-02-11T03:52:26.824Z,33.05
2023-02-11T03:52:51.998Z,33.30
2023-02-11T03:53:14.769Z,33.15
2023-02-11T03:53:37.447Z,33.00
2023-02-11T03:54:02.074Z,33.03
2023-02-11T03:54:26.922Z,33.97
2023-02-11T03:54:50.623Z,33.25
2023-02-11T03:55:15.337Z,32.47
2023-02-11T03:55:39.513Z,31.77
2023-02-11T03:56:04.473Z,32.63
2023-02-11T03:56:29.108Z,33.67
2023-02-11T03:56:54.424Z,33.42
2023-02-11T03:57:17.099Z,33.63
2023-02-11T03:57:39.931Z,33.53
2023-02-11T03:58:02.661Z,33.75
2023-02-11T03:58:25.452Z,34.15
2023-02-11T03:58:48.710Z,34.28
2023-02-11T03:59:11.352Z,34.80
2023-02-11T03:59:44.794Z,35.15
2023-02-11T04:00:09.608Z,36.13
2023-02-11T04:00:33.028Z,36.95
2023-02-11T04:00:55.878Z,36.42
2023-02-11T04:01:18.703Z,36.13
2023-02-11T04:01:41.644Z,36.60
2023-02-11T04:02:04.321Z,37.13
2023-02-11T04:02:30.128Z,36.53
2023-02-11T04:02:53.003Z,36.17
2023-02-11T04:03:15.787Z,37.00
2023-02-11T04:03:40.014Z,36.42
2023-02-11T04:04:02.760Z,35.33
2023-02-11T04:04:25.493Z,35.65
2023-02-11T04:04:48.298Z,34.75
2023-02-11T04:05:12.664Z,35.25
2023-02-11T04:05:35.581Z,36.40
2023-02-11T04:05:58.346Z,35.67
2023-02-11T04:06:21.075Z,36.13
2023-02-11T04:06:44.346Z,34.65
2023-02-11T04:07:07.201Z,34.03
2023-02-11T04:07:30.048Z,34.13
2023-02-11T04:07:52.742Z,34.30
2023-02-11T04:08:15.517Z,34.63
2023-02-11T04:08:38.299Z,35.30
2023-02-11T04:09:01.009Z,35.17
2023-02-11T04:09:23.849Z,34.97
2023-02-11T04:09:46.663Z,34.97
2023-02-11T04:10:09.574Z,34.78
2023-02-11T04:10:32.334Z,35.30
2023-02-11T04:10:54.999Z,34.88
2023-02-11T04:11:17.654Z,35.42
2023-02-11T04:11:40.377Z,35.05
2023-02-11T04:12:03.089Z,35.38
2023-02-11T04:12:25.812Z,35.25
2023-02-11T04:12:48.478Z,34.83
2023-02-11T04:13:11.188Z,35.10
2023-02-11T04:13:33.937Z,34.63
2023-02-11T04:13:56.750Z,34.72
2023-02-11T04:14:19.477Z,35.17
2023-02-11T04:14:42.242Z,35.25
2023-02-11T04:15:05.606Z,34.20
2023-02-11T04:15:28.417Z,34.50
2023-02-11T04:15:51.369Z,34.58
2023-02-11T04:16:14.413Z,34.25
2023-02-11T04:16:37.310Z,34.45
2023-02-11T04:17:00.418Z,34.22
2023-02-11T04:17:23.098Z,34.60
2023-02-11T04:17:46.250Z,34.38
2023-02-11T04:18:08.973Z,35.58
2023-02-11T04:18:31.694Z,35.65
2023-02-11T04:18:55.915Z,35.90
2023-02-11T04:19:18.633Z,35.60
2023-02-11T04:19:42.882Z,35.67
2023-02-11T04:20:06.090Z,35.72
2023-02-11T04:20:28.801Z,34.88
2023-02-11T04:20:51.684Z,33.97
2023-02-11T04:21:14.358Z,35.30
2023-02-11T04:21:37.118Z,35.47
2023-02-11T04:21:59.808Z,34.90
2023-02-11T04:22:22.554Z,35.50
2023-02-11T04:22:45.364Z,34.85
2023-02-11T04:23:08.103Z,34.42
2023-02-11T04:23:30.866Z,34.60
2023-02-11T04:23:53.594Z,34.08
2023-02-11T04:24:16.289Z,34.13
2023-02-11T04:24:39.346Z,34.92
2023-02-11T04:25:02.242Z,34.05
2023-02-11T04:25:26.573Z,34.05
2023-02-11T04:25:50.325Z,34.60
2023-02-11T04:26:14.493Z,34.85
2023-02-11T04:26:37.222Z,34.72
2023-02-11T04:26:59.977Z,35.15
2023-02-11T04:27:22.958Z,35.17
2023-02-11T04:27:45.643Z,35.20
2023-02-11T04:28:08.420Z,34.10
2023-02-11T04:28:31.905Z,34.40
2023-02-11T04:28:54.549Z,34.13
2023-02-11T04:29:17.289Z,34.38
2023-02-11T04:29:40.005Z,33.28
2023-02-11T04:30:02.667Z,34.05
2023-02-11T04:30:25.375Z,34.03
2023-02-11T04:30:49.668Z,33.17
2023-02-11T04:31:13.282Z,32.72
2023-02-11T04:31:36.005Z,33.05
2023-02-11T04:31:58.847Z,34.17
2023-02-11T04:32:21.516Z,33.78
2023-02-11T04:32:44.312Z,33.00
2023-02-11T04:33:07.039Z,34.42
2023-02-11T04:33:30.089Z,33.50
2023-02-11T04:33:52.765Z,33.42
2023-02-11T04:34:16.894Z,33.53
2023-02-11T04:34:39.703Z,34.28
2023-02-11T04:35:03.138Z,34.08
2023-02-11T04:35:25.910Z,33.20
2023-02-11T04:35:49.108Z,33.58
2023-02-11T04:36:13.314Z,33.10
2023-02-11T04:36:36.009Z,33.08
2023-02-11T04:36:58.710Z,32.95
2023-02-11T04:37:21.510Z,33.20
2023-02-11T04:37:44.266Z,32.10
2023-02-11T04:38:06.958Z,32.90
2023-02-11T04:38:29.756Z,32.80
2023-02-11T04:38:52.435Z,33.50
2023-02-11T04:39:15.179Z,32.58
2023-02-11T04:39:37.900Z,32.47
2023-02-11T04:40:00.594Z,32.67
2023-02-11T04:40:23.356Z,32.75
2023-02-11T04:40:46.090Z,32.60
2023-02-11T04:41:08.880Z,32.10
2023-02-11T04:41:31.529Z,32.90
2023-02-11T04:41:54.716Z,31.30
2023-02-11T04:42:17.434Z,32.20
2023-02-11T04:42:40.402Z,32.78
2023-02-11T04:43:03.158Z,31.92
2023-02-11T04:43:25.894Z,32.58
2023-02-11T04:43:48.631Z,32.17
2023-02-11T04:44:11.358Z,32.53
2023-02-11T04:44:34.076Z,32.10
2023-02-11T04:44:56.791Z,32.33
2023-02-11T04:45:19.530Z,31.90
2023-02-11T04:45:42.332Z,32.60
2023-02-11T04:46:05.396Z,32.60
2023-02-11T04:46:28.249Z,32.28
2023-02-11T04:46:51.010Z,32.00
2023-02-11T04:47:16.515Z,33.97
2023-02-11T04:47:39.330Z,33.92
2023-02-11T04:48:02.572Z,33.45
2023-02-11T04:48:25.485Z,32.05
2023-02-11T04:48:48.235Z,32.90
2023-02-11T04:49:12.495Z,31.50
2023-02-11T04:49:36.841Z,32.53
2023-02-11T04:49:59.569Z,32.42
2023-02-11T04:50:22.251Z,33.15
2023-02-11T04:50:44.996Z,31.95
2023-02-11T04:51:07.670Z,32.00
2023-02-11T04:51:30.385Z,32.08
2023-02-11T04:51:53.150Z,32.95
2023-02-11T04:52:15.869Z,32.55
2023-02-11T04:52:38.779Z,32.47
2023-02-11T04:53:01.564Z,32.03
2023-02-11T04:53:24.320Z,31.98
2023-02-11T04:53:47.206Z,32.00
2023-02-11T04:54:09.893Z,32.17
2023-02-11T04:54:32.539Z,31.38
2023-02-11T04:54:55.370Z,31.40
2023-02-11T04:55:18.240Z,31.30
2023-02-11T04:55:40.955Z,31.98
2023-02-11T04:56:03.935Z,31.73
2023-02-11T04:56:26.671Z,31.08
2023-02-11T04:56:50.131Z,31.02
2023-02-11T04:57:12.838Z,31.17
2023-02-11T04:57:35.547Z,30.50
2023-02-11T04:57:58.425Z,30.08
2023-02-11T04:58:21.224Z,30.65
2023-02-11T04:58:43.994Z,30.25
2023-02-11T04:59:07.410Z,30.77
2023-02-11T04:59:30.110Z,31.33
2023-02-11T04:59:52.802Z,30.95
2023-02-11T05:00:16.882Z,31.80
2023-02-11T05:00:39.607Z,30.63
2023-02-11T05:01:07.463Z,31.38
2023-02-11T05:01:30.188Z,30.73
2023-02-11T05:01:52.883Z,30.05
2023-02-11T05:02:15.633Z,31.15
2023-02-11T05:02:38.411Z,29.92
2023-02-11T05:03:01.044Z,29.65
2023-02-11T05:03:23.689Z,30.13
2023-02-11T05:03:46.491Z,30.30
2023-02-11T05:04:09.371Z,30.85
2023-02-11T05:04:32.233Z,31.75
2023-02-11T05:04:56.401Z,31.08
2023-02-11T05:05:19.212Z,30.10
2023-02-11T05:05:42.071Z,30.30
2023-02-11T05:06:05.615Z,30.90
2023-02-11T05:06:28.587Z,30.00
2023-02-11T05:06:51.216Z,29.95
2023-02-11T05:07:13.939Z,30.55
2023-02-11T05:07:36.690Z,31.70
2023-02-11T05:07:59.390Z,31.00
2023-02-11T05:08:22.152Z,31.33
2023-02-11T05:08:45.029Z,32.00
2023-02-11T05:09:07.914Z,31.13
2023-02-11T05:09:30.684Z,31.30
2023-02-11T05:09:54.398Z,31.85
2023-02-11T05:10:17.183Z,30.60
2023-02-11T05:10:40.017Z,30.70
2023-02-11T05:11:02.678Z,30.45
2023-02-11T05:11:25.749Z,29.63
2023-02-11T05:11:48.439Z,30.27
2023-02-11T05:12:11.189Z,31.25
2023-02-11T05:12:34.070Z,30.83
2023-02-11T05:12:56.794Z,30.75
2023-02-11T05:13:19.514Z,31.42
2023-02-11T05:13:42.234Z,31.13
2023-02-11T05:14:05.000Z,30.20
2023-02-11T05:14:27.758Z,31.83
2023-02-11T05:14:50.430Z,31.40
2023-02-11T05:15:13.180Z,31.63
2023-02-11T05:15:35.983Z,31.48
2023-02-11T05:15:58.713Z,30.70
2023-02-11T05:16:21.631Z,30.92
2023-02-11T05:16:44.429Z,32.50
2023-02-11T05:17:07.191Z,31.90
2023-02-11T05:17:30.069Z,31.77
2023-02-11T05:17:52.808Z,30.80
2023-02-11T05:18:15.530Z,30.55